»·PEaware :: N175FW KSMX-KONT

N175FW :: KSMX-KONT

FLIGHT INFORMATION

Flight Status: Arrived
Operator: Privately registered:
United States
More flights under this callsign
Pilot: Frank W. (16848)
Aircraft: CESSNA 172 SKYHAWK
(C172)
More flights by this aircraft type
Origin: KSMX Santa Maria Pub/Capt Hancock
United States
Destination: KONT Ontario Intl
United States
More flights between these airports :: More routes between these airports
Route: L88 LHS L70 L26 KSBD
File this flight plan on PilotEdge
Remarks:
Altitude:
(Current/Filed)
9,500ft
Speed:
(Current/Filed)
110kts
Departed: 30-Dec-17 05:26 PM
Arrived: 30-Dec-17 07:13 PM
Distance/Time
Traveled:
150nm/1:47
Distance/Time
To Go:
Arrived

Flight Plot

Page will automatically refresh every two minutes.

Flight plan parsing failed; only flown route is shown


Map Options




Map Legend


Flown Route
Filed Route
Departure Airport
Arrival Airport
Navaid (VOR, NDB)
Fix

Horizontal Profiles

Position Reports

Time Latitude Longitude Heading Altitude Ground
Speed
30-Dec-17 17:04 34.895496 -120.444533 312 265ft 0kts
30-Dec-17 17:05 34.895496 -120.444533 312 265ft 0kts
30-Dec-17 17:06 34.895496 -120.444533 312 265ft 0kts
30-Dec-17 17:07 34.895496 -120.444533 312 265ft 0kts
30-Dec-17 17:08 34.895496 -120.444533 312 265ft 0kts
30-Dec-17 17:09 34.895496 -120.444533 312 265ft 0kts
30-Dec-17 17:10 34.895496 -120.444533 312 265ft 0kts
30-Dec-17 17:11 34.895496 -120.444533 312 265ft 0kts
30-Dec-17 17:12 34.895496 -120.444533 312 265ft 0kts
30-Dec-17 17:13 34.895496 -120.444533 312 265ft 0kts
30-Dec-17 17:14 34.895496 -120.444533 312 265ft 0kts
30-Dec-17 17:15 34.895496 -120.444533 312 265ft 0kts
30-Dec-17 17:16 34.895496 -120.444533 312 265ft 0kts
30-Dec-17 17:17 34.895496 -120.444533 312 265ft 0kts
30-Dec-17 17:18 34.895496 -120.444533 312 265ft 0kts
30-Dec-17 17:19 34.895496 -120.444533 312 265ft 0kts
30-Dec-17 17:20 34.895496 -120.444533 312 265ft 0kts
30-Dec-17 17:21 34.895496 -120.444533 312 265ft 0kts
30-Dec-17 17:22 34.895496 -120.444533 312 265ft 0kts
30-Dec-17 17:23 34.895496 -120.444533 312 265ft 0kts
30-Dec-17 17:24 34.895496 -120.444533 312 265ft 0kts
30-Dec-17 17:25 34.895496 -120.444533 312 265ft 0kts
30-Dec-17 17:26 34.894974 -120.444660 173 265ft 10kts
30-Dec-17 17:27 34.893510 -120.444590 203 265ft 0kts
30-Dec-17 17:28 34.893510 -120.444590 202 265ft 0kts
30-Dec-17 17:29 34.893469 -120.444620 219 265ft 3kts
30-Dec-17 17:30 34.893162 -120.444861 222 265ft 0kts
30-Dec-17 17:31 34.892646 -120.445585 313 265ft 0kts
30-Dec-17 17:32 34.897430 -120.451050 320 488ft 59kts
30-Dec-17 17:33 34.907099 -120.468582 297 1261ft 68kts
30-Dec-17 17:34 34.915095 -120.479836 339 1618ft 84kts
30-Dec-17 17:35 34.924154 -120.460083 102 2365ft 88kts
30-Dec-17 17:36 34.920400 -120.430718 91 3103ft 88kts
30-Dec-17 17:37 34.919295 -120.395496 88 3529ft 103kts
30-Dec-17 17:38 34.919645 -120.362261 86 4071ft 107kts
30-Dec-17 17:39 34.920438 -120.322868 86 4194ft 112kts
30-Dec-17 17:40 34.921351 -120.289058 85 4777ft 91kts
30-Dec-17 17:41 34.922294 -120.259791 84 5368ft 85kts
30-Dec-17 17:42 34.923058 -120.234103 86 5513ft 107kts
30-Dec-17 17:43 34.924183 -120.188861 86 5507ft 118kts
30-Dec-17 17:44 34.925085 -120.155304 86 5504ft 119kts
30-Dec-17 17:45 34.926384 -120.108096 86 5501ft 119kts
30-Dec-17 17:46 34.927234 -120.077579 86 5883ft 99kts
30-Dec-17 17:47 34.928182 -120.045749 86 6374ft 90kts
30-Dec-17 17:48 34.930081 -120.011329 82 6952ft 86kts
30-Dec-17 17:49 34.931605 -119.986338 85 7370ft 90kts
30-Dec-17 17:50 34.932813 -119.955305 87 7870ft 92kts
30-Dec-17 17:51 34.933227 -119.923798 87 8371ft 92kts
30-Dec-17 17:52 34.933889 -119.892570 87 8868ft 92kts
30-Dec-17 17:53 34.934590 -119.863544 87 9336ft 91kts
30-Dec-17 17:54 34.935381 -119.829377 88 9502ft 117kts
30-Dec-17 17:55 34.936291 -119.787565 88 9500ft 126kts
30-Dec-17 17:56 34.937313 -119.744635 87 9500ft 126kts
30-Dec-17 17:57 34.938382 -119.701322 88 9502ft 128kts
30-Dec-17 17:58 34.932526 -119.658885 106 9504ft 125kts
30-Dec-17 17:59 34.923290 -119.618285 106 9506ft 123kts
30-Dec-17 18:00 34.914291 -119.578873 107 9508ft 123kts
30-Dec-17 18:01 34.905098 -119.538709 107 9510ft 123kts
30-Dec-17 18:02 34.895914 -119.498628 107 9511ft 122kts
30-Dec-17 18:03 34.886801 -119.458635 106 9512ft 123kts
30-Dec-17 18:04 34.878210 -119.418466 120 9510ft 122kts
30-Dec-17 18:05 34.849062 -119.402689 165 9515ft 116kts
30-Dec-17 18:06 34.843770 -119.366107 78 9517ft 124kts
30-Dec-17 18:07 34.848638 -119.325915 90 9516ft 124kts
30-Dec-17 18:08 34.844525 -119.284406 103 9518ft 123kts
30-Dec-17 18:09 34.836631 -119.244008 106 9523ft 124kts
30-Dec-17 18:10 34.827628 -119.203533 107 9512ft 123kts
30-Dec-17 18:11 34.818402 -119.163353 107 9504ft 122kts
30-Dec-17 18:12 34.809190 -119.123649 107 9502ft 121kts
30-Dec-17 18:13 34.799927 -119.083879 107 9504ft 122kts
30-Dec-17 18:14 34.790684 -119.044290 107 9503ft 122kts
30-Dec-17 18:15 34.781369 -119.004491 107 9489ft 122kts
30-Dec-17 18:16 34.772030 -118.964626 106 9469ft 122kts
30-Dec-17 18:17 34.762667 -118.924709 106 9450ft 122kts
30-Dec-17 18:18 34.753286 -118.884783 106 9431ft 122kts
30-Dec-17 18:19 34.743931 -118.845032 105 9413ft 122kts
30-Dec-17 18:20 34.734612 -118.805443 104 9395ft 121kts
30-Dec-17 18:21 34.725651 -118.766028 105 9402ft 120kts
30-Dec-17 18:22 34.716515 -118.727001 105 9421ft 120kts
30-Dec-17 18:23 34.707286 -118.687928 105 9442ft 120kts
30-Dec-17 18:24 34.697993 -118.648728 105 9460ft 120kts
30-Dec-17 18:25 34.688681 -118.609561 105 9475ft 120kts
30-Dec-17 18:26 34.676649 -118.572051 128 9487ft 121kts
30-Dec-17 18:27 34.655234 -118.540518 129 9490ft 121kts
30-Dec-17 18:28 34.633592 -118.508968 129 9488ft 122kts
30-Dec-17 18:29 34.611966 -118.477534 129 9487ft 122kts
30-Dec-17 18:30 34.590243 -118.446000 129 9488ft 122kts
30-Dec-17 18:31 34.568491 -118.414457 129 9489ft 121kts
30-Dec-17 18:32 34.546753 -118.382961 129 9491ft 121kts
30-Dec-17 18:33 34.525143 -118.351680 129 9491ft 121kts
30-Dec-17 18:34 34.504542 -118.321879 130 9489ft 121kts
30-Dec-17 18:35 34.496727 -118.283009 98 9489ft 121kts
30-Dec-17 18:36 34.491541 -118.242665 97 9491ft 121kts
30-Dec-17 18:37 34.486507 -118.202324 97 9492ft 121kts
30-Dec-17 18:38 34.481511 -118.162021 97 9494ft 121kts
30-Dec-17 18:39 34.476503 -118.121646 97 9496ft 121kts
30-Dec-17 18:40 34.471479 -118.081235 97 9499ft 121kts
30-Dec-17 18:41 34.466462 -118.040954 98 9499ft 121kts
30-Dec-17 18:42 34.461402 -118.000467 98 9499ft 121kts
30-Dec-17 18:43 34.456320 -117.959889 98 9499ft 121kts
30-Dec-17 18:44 34.451951 -117.919295 97 9499ft 122kts
30-Dec-17 18:45 34.447362 -117.878580 98 9499ft 122kts
30-Dec-17 18:46 34.442279 -117.837795 98 9499ft 122kts
30-Dec-17 18:47 34.437151 -117.797147 99 9498ft 122kts
30-Dec-17 18:48 34.431982 -117.756307 99 9498ft 122kts
30-Dec-17 18:49 34.426808 -117.715533 99 9497ft 122kts
30-Dec-17 18:50 34.421619 -117.674755 99 9497ft 122kts
30-Dec-17 18:51 34.417400 -117.641684 99 9497ft 123kts
30-Dec-17 18:52 34.412200 -117.601007 99 9524ft 121kts
30-Dec-17 18:53 34.406975 -117.560247 99 9523ft 123kts
30-Dec-17 18:54 34.401732 -117.519472 99 9521ft 123kts
30-Dec-17 18:55 34.396464 -117.478624 99 9493ft 125kts
30-Dec-17 18:56 34.391148 -117.436017 99 9206ft 131kts
30-Dec-17 18:57 34.385555 -117.392594 99 8912ft 131kts
30-Dec-17 18:58 34.379934 -117.349344 100 8618ft 130kts
30-Dec-17 18:59 34.364561 -117.314958 165 8301ft 126kts
30-Dec-17 19:00 34.330792 -117.304534 168 7999ft 126kts
30-Dec-17 19:01 34.297121 -117.294792 168 7700ft 126kts
30-Dec-17 19:02 34.263220 -117.285029 168 7400ft 126kts
30-Dec-17 19:03 34.229225 -117.275250 168 7098ft 126kts
30-Dec-17 19:04 34.195693 -117.265615 168 6800ft 125kts
30-Dec-17 19:05 34.164034 -117.256552 168 6328ft 117kts
30-Dec-17 19:06 34.133594 -117.247816 168 5933ft 114kts
30-Dec-17 19:07 34.103479 -117.239945 187 5536ft 113kts
30-Dec-17 19:08 34.092940 -117.270517 263 5135ft 113kts
30-Dec-17 19:09 34.089480 -117.306156 261 4754ft 114kts
30-Dec-17 19:10 34.085758 -117.341553 261 4379ft 115kts
30-Dec-17 19:11 34.079798 -117.377563 252 4026ft 116kts
30-Dec-17 19:12 34.066954 -117.409368 248 3877ft 108kts
30-Dec-17 19:13 34.057470 -117.443184 257 3590ft 113kts
30-Dec-17 19:14 34.054002 -117.478050 272 3102ft 116kts
30-Dec-17 19:15 34.054530 -117.511758 269 2374ft 101kts
30-Dec-17 19:16 34.054728 -117.536834 271 1773ft 79kts
30-Dec-17 19:17 34.054659 -117.558660 273 1421ft 70kts
30-Dec-17 19:18 34.054927 -117.579976 270 1009ft 72kts
30-Dec-17 19:19 34.054273 -117.589558 186 916ft 7kts
30-Dec-17 19:20 34.053992 -117.589468 123 915ft 0kts
30-Dec-17 19:21 34.053845 -117.588825 88 915ft 16kts
30-Dec-17 19:22 34.053939 -117.584533 61 915ft 4kts
30-Dec-17 19:23 34.053823 -117.586114 270 914ft 17kts
30-Dec-17 19:24 34.053786 -117.590488 269 914ft 9kts
30-Dec-17 19:25 34.053841 -117.596487 270 915ft 31kts
30-Dec-17 19:26 34.053839 -117.605811 270 919ft 33kts
30-Dec-17 19:27 34.053363 -117.609393 158 919ft 4kts
30-Dec-17 19:28 34.052598 -117.608945 52 916ft 0kts
30-Dec-17 19:29 34.052666 -117.608717 102 917ft 0kts
30-Dec-17 19:30 34.052666 -117.608717 102 917ft 0kts

Navigation Log

Ident Type
Flight plan parsing failed, navigation log unavailable